createdAt,value
2024-02-03T00:02:00.596Z,77.69
2024-02-03T00:04:32.948Z,78.17
2024-02-03T00:07:04.401Z,77.28
2024-02-03T00:09:36.296Z,77.97
2024-02-03T00:12:11.879Z,78.21
2024-02-03T00:14:46.896Z,79.71
2024-02-03T00:17:17.922Z,78.67
2024-02-03T00:19:57.487Z,79.43
2024-02-03T00:22:39.315Z,78.66
2024-02-03T00:25:13.853Z,78.63
2024-02-03T00:27:45.525Z,79.15
2024-02-03T00:30:16.613Z,79.35
2024-02-03T00:32:52.218Z,78.93
2024-02-03T00:35:23.252Z,78.88
2024-02-03T00:37:55.786Z,79.03
2024-02-03T00:40:27.233Z,78.51
2024-02-03T00:42:58.092Z,78.27
2024-02-03T00:45:33.466Z,78.42
2024-02-03T00:48:04.264Z,78.52
2024-02-03T00:50:34.647Z,78.49
2024-02-03T00:53:13.670Z,78.85
2024-02-03T00:55:49.648Z,78.59
2024-02-03T00:58:19.950Z,79.06
2024-02-03T01:00:51.083Z,79.15
2024-02-03T01:03:22.491Z,79.22
2024-02-03T01:05:59.210Z,79.23
2024-02-03T01:08:31.415Z,79.03
2024-02-03T01:11:06.360Z,80.01
2024-02-03T01:13:39.520Z,79.62
2024-02-03T01:16:11.674Z,80.27
2024-02-03T01:18:49.364Z,80.86
2024-02-03T01:21:22.895Z,80.67
2024-02-03T01:23:55.223Z,80.21
2024-02-03T01:26:31.416Z,81.25
2024-02-03T01:29:06.305Z,80.91
2024-02-03T01:31:41.229Z,81.32
2024-02-03T01:34:17.162Z,80.72
2024-02-03T01:36:50.991Z,81.13
2024-02-03T01:39:24.847Z,80.93
2024-02-03T01:41:56.241Z,80.44
2024-02-03T01:44:39.275Z,80.71
2024-02-03T01:47:14.960Z,82.04
2024-02-03T01:49:45.918Z,80.46
2024-02-03T01:52:17.331Z,79.95
2024-02-03T01:54:52.917Z,79.76
2024-02-03T01:57:27.802Z,80.43
2024-02-03T01:59:59.055Z,80.39
2024-02-03T02:02:42.220Z,80.64
2024-02-03T02:05:13.912Z,80.55
2024-02-03T02:07:48.397Z,81.34
2024-02-03T02:10:20.644Z,80.49
2024-02-03T02:12:51.486Z,80.19
2024-02-03T02:15:27.292Z,80.06
2024-02-03T02:18:11.899Z,80.23
2024-02-03T02:20:42.762Z,80.49
2024-02-03T02:23:23.173Z,80.49
2024-02-03T02:25:54.700Z,80.59
2024-02-03T02:28:36.205Z,80.80
2024-02-03T02:31:07.447Z,80.94
2024-02-03T02:33:39.302Z,80.64
2024-02-03T02:36:14.382Z,80.66
2024-02-03T02:38:46.616Z,81.13
2024-02-03T02:41:17.716Z,80.83
2024-02-03T02:43:50.763Z,80.99
2024-02-03T02:46:29.139Z,81.26
2024-02-03T02:49:00.104Z,81.21
2024-02-03T02:51:31.999Z,81.45
2024-02-03T02:54:06.499Z,81.40
2024-02-03T02:56:37.614Z,81.64
2024-02-03T02:59:09.170Z,81.88
2024-02-03T03:01:39.622Z,81.98
2024-02-03T03:04:09.756Z,82.32
2024-02-03T03:06:40.894Z,82.55
2024-02-03T03:09:12.810Z,82.55
2024-02-03T03:11:43.450Z,82.77
2024-02-03T03:14:14.761Z,83.00
2024-02-03T03:16:46.873Z,83.11
2024-02-03T03:19:17.535Z,83.29
2024-02-03T03:21:47.936Z,83.42
2024-02-03T03:24:19.027Z,83.65
2024-02-03T03:26:49.417Z,83.72
2024-02-03T03:29:19.881Z,83.62
2024-02-03T03:31:49.808Z,83.73
2024-02-03T03:34:20.719Z,83.62
2024-02-03T03:36:51.351Z,83.91
2024-02-03T03:39:22.067Z,83.86
2024-02-03T03:41:52.569Z,83.91
2024-02-03T03:44:23.945Z,83.83
2024-02-03T03:46:54.452Z,83.72
2024-02-03T03:49:24.858Z,83.57
2024-02-03T03:51:55.992Z,83.68
2024-02-03T03:54:27.085Z,83.70
2024-02-03T03:56:59.604Z,83.61
2024-02-03T03:59:33.696Z,83.57
2024-02-03T04:02:04.466Z,83.63
2024-02-03T04:04:34.692Z,83.55
2024-02-03T04:07:05.801Z,83.59
2024-02-03T04:09:36.434Z,83.72
2024-02-03T04:12:12.679Z,83.80
2024-02-03T04:14:49.286Z,83.80
2024-02-03T04:17:20.327Z,83.77
2024-02-03T04:19:54.416Z,83.73
2024-02-03T04:22:24.429Z,83.67
2024-02-03T04:25:03.529Z,83.84
2024-02-03T04:27:34.035Z,83.87
2024-02-03T04:30:21.748Z,84.01
2024-02-03T04:32:55.211Z,83.77
2024-02-03T04:35:27.030Z,83.74
2024-02-03T04:38:06.181Z,83.85
2024-02-03T04:40:37.514Z,83.88
2024-02-03T04:43:08.254Z,83.84
2024-02-03T04:45:38.564Z,83.86
2024-02-03T04:48:09.541Z,83.74
2024-02-03T04:50:41.973Z,83.80
2024-02-03T04:53:14.572Z,83.78
2024-02-03T04:55:48.254Z,83.70
2024-02-03T04:58:21.659Z,83.60
2024-02-03T05:00:53.117Z,83.62
2024-02-03T05:03:23.739Z,83.61
2024-02-03T05:05:54.085Z,83.71
2024-02-03T05:08:24.243Z,83.92
2024-02-03T05:10:54.896Z,83.96
2024-02-03T05:13:26.214Z,83.94
2024-02-03T05:15:58.748Z,83.93
2024-02-03T05:18:30.239Z,84.00
2024-02-03T05:21:00.961Z,83.82
2024-02-03T05:23:31.193Z,83.87
2024-02-03T05:26:04.624Z,83.79
2024-02-03T05:28:38.465Z,83.92
2024-02-03T05:31:08.685Z,84.03
2024-02-03T05:33:40.148Z,84.02
2024-02-03T05:36:12.160Z,84.14
2024-02-03T05:38:42.685Z,84.44
2024-02-03T05:41:13.115Z,84.32
2024-02-03T05:43:43.511Z,84.36
2024-02-03T05:46:13.724Z,84.37
2024-02-03T05:48:43.954Z,84.49
2024-02-03T05:51:20.630Z,84.16
2024-02-03T05:53:58.733Z,84.49
2024-02-03T05:56:30.239Z,84.59
2024-02-03T05:59:14.244Z,84.57
2024-02-03T06:01:53.533Z,84.52
2024-02-03T06:04:24.199Z,84.61
2024-02-03T06:06:54.563Z,84.65
2024-02-03T06:09:28.101Z,84.66
2024-02-03T06:11:59.049Z,84.67
2024-02-03T06:14:30.143Z,84.70
2024-02-03T06:17:02.888Z,84.65
2024-02-03T06:19:33.449Z,84.82
2024-02-03T06:22:06.780Z,84.88
2024-02-03T06:24:40.507Z,85.06
2024-02-03T06:27:11.079Z,85.13
2024-02-03T06:29:47.234Z,85.16
2024-02-03T06:32:17.653Z,85.09
2024-02-03T06:34:48.437Z,85.21
2024-02-03T06:37:18.726Z,85.15
2024-02-03T06:39:49.252Z,85.15
2024-02-03T06:42:19.347Z,85.38
2024-02-03T06:44:50.564Z,85.35
2024-02-03T06:47:22.390Z,85.36
2024-02-03T06:49:52.363Z,85.39
2024-02-03T06:52:22.803Z,85.37
2024-02-03T06:54:53.077Z,85.44
2024-02-03T06:57:24.217Z,85.45
2024-02-03T06:59:56.259Z,85.53
2024-02-03T07:02:26.782Z,85.62
2024-02-03T07:04:57.456Z,85.55
2024-02-03T07:07:29.286Z,85.43
2024-02-03T07:10:01.612Z,85.32
2024-02-03T07:12:32.294Z,85.26
2024-02-03T07:15:02.524Z,85.23
2024-02-03T07:17:32.538Z,85.32
2024-02-03T07:20:02.677Z,85.35
2024-02-03T07:22:32.851Z,85.39
2024-02-03T07:25:03.000Z,85.22
2024-02-03T07:27:33.795Z,85.39
2024-02-03T07:30:03.738Z,85.36
2024-02-03T07:32:34.110Z,85.58
2024-02-03T07:35:05.137Z,85.53
2024-02-03T07:37:35.694Z,85.59
2024-02-03T07:40:05.932Z,85.62
2024-02-03T07:42:36.076Z,85.52
2024-02-03T07:45:07.722Z,85.41
2024-02-03T07:47:38.511Z,85.39
2024-02-03T07:50:09.322Z,85.42
2024-02-03T07:52:39.771Z,85.43
2024-02-03T07:55:10.390Z,85.33
2024-02-03T07:57:41.129Z,85.54
2024-02-03T08:00:12.159Z,85.61
2024-02-03T08:02:43.048Z,85.64
2024-02-03T08:05:13.427Z,85.67
2024-02-03T08:07:43.610Z,85.77
2024-02-03T08:10:14.376Z,85.71
2024-02-03T08:12:44.417Z,85.65
2024-02-03T08:15:14.679Z,85.30
2024-02-03T08:17:45.235Z,85.36
2024-02-03T08:20:16.046Z,85.41
2024-02-03T08:22:46.545Z,85.40
2024-02-03T08:25:17.879Z,85.31
2024-02-03T08:27:48.482Z,85.28
2024-02-03T08:30:18.747Z,85.30
2024-02-03T08:32:49.754Z,85.39
2024-02-03T08:35:20.103Z,85.49
2024-02-03T08:37:51.333Z,85.50
2024-02-03T08:40:21.992Z,85.53
2024-02-03T08:42:53.256Z,85.59
2024-02-03T08:45:24.158Z,85.62
2024-02-03T08:47:54.920Z,85.80
2024-02-03T08:50:25.663Z,85.72
2024-02-03T08:52:55.541Z,85.79
2024-02-03T08:55:26.761Z,85.72
2024-02-03T08:57:58.107Z,85.62
2024-02-03T09:00:30.199Z,85.50
2024-02-03T09:03:01.499Z,85.46
2024-02-03T09:05:32.438Z,85.38
2024-02-03T09:08:02.690Z,85.28
2024-02-03T09:10:33.419Z,85.27
2024-02-03T09:13:03.739Z,85.17
2024-02-03T09:15:33.937Z,85.18
2024-02-03T09:18:04.478Z,85.02
2024-02-03T09:20:35.220Z,84.99
2024-02-03T09:23:06.115Z,84.88
2024-02-03T09:25:36.677Z,85.02
2024-02-03T09:28:09.261Z,85.22
2024-02-03T09:30:39.701Z,85.39
2024-02-03T09:33:10.103Z,85.47
2024-02-03T09:35:40.775Z,85.35
2024-02-03T09:38:10.988Z,85.46
2024-02-03T09:40:40.934Z,85.61
2024-02-03T09:43:12.102Z,85.81
2024-02-03T09:45:43.001Z,85.39
2024-02-03T09:48:13.625Z,85.45
2024-02-03T09:50:43.895Z,85.54
2024-02-03T09:53:15.410Z,85.14
2024-02-03T09:55:46.392Z,84.64
2024-02-03T09:58:17.414Z,84.45
2024-02-03T10:00:53.159Z,83.62
2024-02-03T10:03:24.207Z,83.78
2024-02-03T10:06:06.296Z,83.66
2024-02-03T10:08:37.302Z,83.39
2024-02-03T10:11:08.273Z,83.75
2024-02-03T10:13:38.784Z,83.84
2024-02-03T10:16:11.346Z,84.19
2024-02-03T10:18:42.271Z,83.84
2024-02-03T10:21:12.919Z,82.87
2024-02-03T10:23:53.956Z,74.89
2024-02-03T10:26:24.646Z,70.26
2024-02-03T10:28:55.204Z,69.60
2024-02-03T10:31:26.594Z,69.29
2024-02-03T10:33:58.264Z,69.28
2024-02-03T10:36:28.953Z,69.83
2024-02-03T10:38:59.237Z,69.40
2024-02-03T10:41:35.546Z,70.07
2024-02-03T10:44:09.967Z,71.27
2024-02-03T10:46:43.665Z,71.75
2024-02-03T10:49:19.559Z,71.52
2024-02-03T10:51:53.428Z,72.60
2024-02-03T10:54:28.373Z,72.99
2024-02-03T10:56:59.534Z,72.85
2024-02-03T10:59:32.697Z,71.74
2024-02-03T11:02:04.022Z,70.51
2024-02-03T11:04:42.267Z,71.08
2024-02-03T11:07:24.398Z,70.66
2024-02-03T11:09:56.855Z,70.46
2024-02-03T11:12:38.990Z,70.36
2024-02-03T11:15:13.716Z,70.10
2024-02-03T11:17:48.671Z,69.55
2024-02-03T11:20:24.640Z,68.93
2024-02-03T11:22:57.837Z,68.98
2024-02-03T11:25:31.190Z,69.66
2024-02-03T11:28:07.277Z,68.91
2024-02-03T11:30:37.787Z,68.51
2024-02-03T11:33:10.249Z,68.46
2024-02-03T11:35:40.793Z,68.85
2024-02-03T11:38:11.940Z,68.04
2024-02-03T11:40:47.298Z,66.85
2024-02-03T11:43:18.921Z,67.06
2024-02-03T11:45:54.111Z,66.76
2024-02-03T11:48:24.944Z,66.47
2024-02-03T11:50:56.398Z,66.99
2024-02-03T11:53:30.896Z,67.94
2024-02-03T11:56:02.376Z,66.82
2024-02-03T11:58:33.428Z,66.48
2024-02-03T12:01:21.810Z,66.63
2024-02-03T12:03:52.591Z,65.42
2024-02-03T12:06:24.333Z,66.96
2024-02-03T12:08:54.982Z,67.03
2024-02-03T12:11:27.308Z,67.09
2024-02-03T12:13:59.046Z,66.29
2024-02-03T12:16:32.670Z,66.98
2024-02-03T12:19:06.920Z,66.34
2024-02-03T12:21:37.981Z,66.19
2024-02-03T12:24:16.335Z,66.37
2024-02-03T12:26:47.146Z,66.20
2024-02-03T12:29:19.378Z,66.05
2024-02-03T12:31:50.094Z,65.92
2024-02-03T12:34:21.861Z,66.12
2024-02-03T12:36:53.759Z,66.35
2024-02-03T12:39:25.006Z,66.05
2024-02-03T12:42:00.253Z,65.47
2024-02-03T12:44:32.326Z,65.76
2024-02-03T12:47:04.275Z,66.43
2024-02-03T12:49:36.399Z,66.06
2024-02-03T12:52:08.351Z,66.93
2024-02-03T12:54:44.273Z,66.12
2024-02-03T12:57:27.969Z,64.86
2024-02-03T13:00:01.775Z,65.98
2024-02-03T13:02:33.364Z,66.77
2024-02-03T13:05:07.429Z,66.21
2024-02-03T13:07:41.698Z,65.27
2024-02-03T13:10:15.110Z,65.56
2024-02-03T13:12:46.335Z,65.18
2024-02-03T13:15:17.342Z,66.37
2024-02-03T13:17:49.909Z,65.56
2024-02-03T13:20:24.434Z,65.67
2024-02-03T13:22:56.152Z,65.65
2024-02-03T13:25:26.717Z,65.54
2024-02-03T13:27:57.448Z,65.22
2024-02-03T13:30:28.626Z,67.10
2024-02-03T13:33:02.159Z,66.72
2024-02-03T13:35:34.092Z,67.47
2024-02-03T13:38:07.885Z,66.85
2024-02-03T13:40:38.580Z,67.35
2024-02-03T13:43:09.440Z,67.03
2024-02-03T13:45:43.236Z,66.26
2024-02-03T13:48:15.229Z,68.46
2024-02-03T13:50:46.063Z,67.79
2024-02-03T13:53:17.301Z,66.35
2024-02-03T13:55:47.903Z,66.32
2024-02-03T13:58:19.607Z,65.81
2024-02-03T14:00:53.631Z,65.26
2024-02-03T14:03:31.739Z,63.97
2024-02-03T14:06:02.435Z,62.98
2024-02-03T14:09:01.258Z,64.33
2024-02-03T14:11:42.092Z,64.38
2024-02-03T14:14:38.099Z,63.64
2024-02-03T14:17:11.062Z,64.08
2024-02-03T14:19:42.704Z,63.85
2024-02-03T14:22:22.411Z,63.13
2024-02-03T14:24:59.048Z,62.91
2024-02-03T14:27:34.800Z,63.36
2024-02-03T14:30:10.309Z,63.94
2024-02-03T14:32:42.971Z,64.54
2024-02-03T14:35:13.804Z,64.61
2024-02-03T14:37:49.177Z,62.97
2024-02-03T14:40:20.218Z,62.29
2024-02-03T14:42:53.630Z,63.49
2024-02-03T14:45:27.671Z,63.44
2024-02-03T14:48:02.864Z,64.18
2024-02-03T14:50:38.190Z,63.92
2024-02-03T14:53:08.961Z,63.35
2024-02-03T14:55:40.728Z,64.73
2024-02-03T14:58:12.835Z,64.04
2024-02-03T15:00:44.893Z,65.11
2024-02-03T15:03:16.275Z,65.91
2024-02-03T15:05:46.779Z,66.45
2024-02-03T15:08:19.188Z,65.51
2024-02-03T15:10:58.114Z,65.10
2024-02-03T15:13:28.972Z,65.04
2024-02-03T15:16:02.782Z,65.93
2024-02-03T15:18:34.099Z,65.38
2024-02-03T15:21:05.462Z,65.45
2024-02-03T15:23:35.949Z,64.61
2024-02-03T15:26:13.773Z,64.82
2024-02-03T15:28:45.808Z,64.46
2024-02-03T15:31:17.287Z,66.38
2024-02-03T15:33:48.770Z,64.89
2024-02-03T15:36:19.419Z,66.04
2024-02-03T15:38:50.200Z,67.06
2024-02-03T15:41:20.704Z,66.31
2024-02-03T15:43:52.474Z,66.11
2024-02-03T15:46:33.533Z,66.94
2024-02-03T15:49:10.826Z,67.71
2024-02-03T15:51:42.355Z,67.17
2024-02-03T15:54:13.060Z,66.81
2024-02-03T15:56:44.205Z,66.63
2024-02-03T15:59:16.487Z,66.74
2024-02-03T16:01:49.563Z,66.89
2024-02-03T16:04:21.805Z,66.73
2024-02-03T16:06:54.565Z,67.19
2024-02-03T16:09:27.119Z,67.49
2024-02-03T16:12:07.676Z,67.72
2024-02-03T16:14:42.513Z,67.88
2024-02-03T16:17:14.044Z,68.37
2024-02-03T16:19:45.320Z,68.11
2024-02-03T16:22:19.260Z,67.12
2024-02-03T16:24:50.623Z,67.35
2024-02-03T16:27:24.053Z,66.14
2024-02-03T16:29:55.178Z,67.96
2024-02-03T16:32:27.809Z,66.95
2024-02-03T16:34:58.770Z,68.01
2024-02-03T16:37:51.856Z,66.96
2024-02-03T16:40:39.025Z,67.23
2024-02-03T16:43:11.571Z,68.51
2024-02-03T16:45:43.572Z,68.05
2024-02-03T16:48:17.404Z,67.33
2024-02-03T16:50:53.245Z,67.85
2024-02-03T16:53:25.228Z,69.69
2024-02-03T16:55:55.790Z,68.83
2024-02-03T16:58:26.348Z,69.16
2024-02-03T17:00:57.293Z,69.12
2024-02-03T17:03:28.197Z,68.04
2024-02-03T17:06:09.011Z,69.17
2024-02-03T17:08:40.129Z,68.44
2024-02-03T17:11:12.856Z,68.41
2024-02-03T17:13:43.387Z,68.21
2024-02-03T17:16:15.226Z,68.16
2024-02-03T17:18:53.778Z,68.04
2024-02-03T17:21:24.692Z,67.55
2024-02-03T17:23:57.901Z,67.92
2024-02-03T17:26:31.600Z,68.32
2024-02-03T17:29:03.221Z,68.76
2024-02-03T17:31:37.037Z,69.61
2024-02-03T17:34:07.867Z,68.88
2024-02-03T17:36:39.733Z,70.47
2024-02-03T17:39:10.332Z,70.90
2024-02-03T17:41:40.785Z,70.35
2024-02-03T17:44:11.485Z,70.62
2024-02-03T17:46:41.555Z,70.42
2024-02-03T17:49:14.261Z,70.22
2024-02-03T17:51:45.274Z,70.70
2024-02-03T17:54:15.567Z,70.70
2024-02-03T17:56:46.045Z,71.24
2024-02-03T17:59:21.396Z,70.76
2024-02-03T18:01:52.738Z,71.98
2024-02-03T18:04:24.610Z,71.10
2024-02-03T18:06:55.927Z,71.87
2024-02-03T18:09:28.721Z,71.98
2024-02-03T18:12:00.573Z,72.18
2024-02-03T18:14:31.056Z,72.67
2024-02-03T18:17:05.038Z,72.65
2024-02-03T18:19:41.980Z,73.31
2024-02-03T18:22:13.611Z,73.49
2024-02-03T18:24:53.343Z,73.28
2024-02-03T18:27:25.145Z,72.66
2024-02-03T18:29:56.723Z,72.26
2024-02-03T18:32:27.752Z,72.39
2024-02-03T18:34:58.760Z,72.21
2024-02-03T18:37:32.531Z,72.63
2024-02-03T18:40:04.069Z,73.19
2024-02-03T18:42:35.362Z,73.53
2024-02-03T18:45:06.937Z,73.50
2024-02-03T18:47:37.378Z,73.42
2024-02-03T18:50:08.161Z,73.75
2024-02-03T18:52:40.077Z,74.08
2024-02-03T18:55:10.848Z,73.91
2024-02-03T18:57:42.155Z,73.99
2024-02-03T19:00:13.550Z,74.71
2024-02-03T19:02:47.728Z,74.03
2024-02-03T19:05:30.735Z,74.24
2024-02-03T19:08:02.283Z,73.78
2024-02-03T19:10:34.114Z,74.21
2024-02-03T19:13:05.455Z,75.13
2024-02-03T19:15:37.191Z,75.18
2024-02-03T19:18:10.874Z,75.19
2024-02-03T19:20:41.585Z,75.44
2024-02-03T19:23:15.850Z,75.41
2024-02-03T19:25:53.067Z,75.52
2024-02-03T19:28:25.210Z,75.32
2024-02-03T19:31:04.405Z,75.70
2024-02-03T19:33:37.155Z,75.79
2024-02-03T19:36:09.101Z,76.14
2024-02-03T19:38:39.851Z,76.18
2024-02-03T19:41:12.539Z,76.43
2024-02-03T19:43:43.700Z,76.21
2024-02-03T19:46:14.190Z,76.39
2024-02-03T19:48:44.649Z,76.26
2024-02-03T19:51:15.463Z,76.38
2024-02-03T19:53:46.250Z,76.82
2024-02-03T19:56:17.075Z,77.02
2024-02-03T19:58:48.470Z,77.24
2024-02-03T20:01:19.459Z,77.65
2024-02-03T20:03:53.844Z,77.68
2024-02-03T20:06:24.594Z,77.86
2024-02-03T20:08:55.618Z,78.03
2024-02-03T20:11:26.219Z,78.13
2024-02-03T20:13:58.236Z,78.12
2024-02-03T20:16:46.202Z,78.54
2024-02-03T20:19:17.776Z,78.66
2024-02-03T20:21:48.483Z,78.76
2024-02-03T20:24:20.895Z,79.22
2024-02-03T20:26:53.747Z,79.24
2024-02-03T20:29:29.784Z,79.32
2024-02-03T20:32:09.893Z,79.23
2024-02-03T20:34:41.498Z,79.54
2024-02-03T20:37:17.405Z,79.73
2024-02-03T20:40:08.061Z,80.05
2024-02-03T20:42:44.141Z,80.41
2024-02-03T20:45:15.223Z,80.25
2024-02-03T20:47:45.829Z,80.77
2024-02-03T20:50:16.839Z,81.11
2024-02-03T20:52:53.352Z,80.88
2024-02-03T21:01:01.415Z,81.28
2024-02-03T21:03:35.880Z,81.77
2024-02-03T21:07:00.226Z,80.67
2024-02-03T21:09:35.806Z,82.02
2024-02-03T21:12:08.010Z,82.20
2024-02-03T21:14:40.222Z,82.33
2024-02-03T21:17:11.676Z,82.49
2024-02-03T21:19:49.066Z,83.10
2024-02-03T21:22:21.392Z,83.07
2024-02-03T21:24:54.842Z,83.33
2024-02-03T21:27:25.191Z,83.54
2024-02-03T21:29:56.203Z,83.92
2024-02-03T21:32:26.912Z,84.08
2024-02-03T21:34:57.768Z,84.15
2024-02-03T21:37:35.958Z,84.67
2024-02-03T21:40:07.681Z,84.41
2024-02-03T21:42:39.056Z,84.54
2024-02-03T21:45:10.143Z,84.56
2024-02-03T21:47:44.472Z,84.84
2024-02-03T21:51:19.947Z,84.86
2024-02-03T21:53:51.910Z,84.89
2024-02-03T21:56:24.144Z,85.29
2024-02-03T21:58:54.779Z,85.69
2024-02-03T22:01:25.687Z,85.98
2024-02-03T22:03:56.642Z,86.14
2024-02-03T22:06:30.158Z,86.07
2024-02-03T22:09:01.200Z,86.47
2024-02-03T22:24:05.853Z,87.33
2024-02-03T22:31:28.389Z,87.43
2024-02-03T22:34:50.215Z,87.70
2024-02-03T22:41:28.786Z,87.78
2024-02-03T22:44:34.059Z,87.91
2024-02-03T22:50:36.514Z,87.94
2024-02-03T22:53:55.912Z,88.04
2024-02-03T23:00:09.039Z,88.23
2024-02-03T23:02:46.315Z,88.20
2024-02-03T23:05:20.529Z,88.19
2024-02-03T23:08:10.900Z,88.25
2024-02-03T23:10:58.820Z,88.28
2024-02-03T23:14:05.855Z,88.30
2024-02-03T23:23:33.991Z,88.65
2024-02-03T23:26:23.040Z,88.97
2024-02-03T23:32:48.349Z,89.07
2024-02-03T23:35:19.053Z,89.07
2024-02-03T23:38:35.917Z,88.94
